sensor_id;sensor_type;location;lat;lon;timestamp;temperature;humidity
53645;DHT22;39547;45.554;12.068;2023-03-14T00:02:44;12.40;72.50
53645;DHT22;39547;45.554;12.068;2023-03-14T00:08:45;12.40;72.60
53645;DHT22;39547;45.554;12.068;2023-03-14T00:14:47;12.40;72.60
53645;DHT22;39547;45.554;12.068;2023-03-14T00:20:48;12.40;72.60
53645;DHT22;39547;45.554;12.068;2023-03-14T00:26:49;12.40;72.60
53645;DHT22;39547;45.554;12.068;2023-03-14T00:32:51;12.40;72.90
53645;DHT22;39547;45.554;12.068;2023-03-14T00:38:52;12.40;73.50
53645;DHT22;39547;45.554;12.068;2023-03-14T00:44:54;12.40;73.20
53645;DHT22;39547;45.554;12.068;2023-03-14T00:50:55;12.40;73.00
53645;DHT22;39547;45.554;12.068;2023-03-14T00:56:57;12.40;73.20
53645;DHT22;39547;45.554;12.068;2023-03-14T01:02:58;12.40;73.30
53645;DHT22;39547;45.554;12.068;2023-03-14T01:09:00;12.40;73.80
53645;DHT22;39547;45.554;12.068;2023-03-14T01:15:02;12.30;74.50
53645;DHT22;39547;45.554;12.068;2023-03-14T01:21:09;12.40;74.70
53645;DHT22;39547;45.554;12.068;2023-03-14T01:27:12;12.30;75.00
53645;DHT22;39547;45.554;12.068;2023-03-14T01:33:14;12.30;74.70
53645;DHT22;39547;45.554;12.068;2023-03-14T01:39:18;12.30;74.50
53645;DHT22;39547;45.554;12.068;2023-03-14T01:52:06;12.30;75.30
53645;DHT22;39547;45.554;12.068;2023-03-14T01:58:09;12.30;75.40
53645;DHT22;39547;45.554;12.068;2023-03-14T02:04:11;12.20;76.50
53645;DHT22;39547;45.554;12.068;2023-03-14T02:10:18;12.20;75.80
53645;DHT22;39547;45.554;12.068;2023-03-14T02:16:21;12.20;75.70
53645;DHT22;39547;45.554;12.068;2023-03-14T02:22:22;12.20;75.60
53645;DHT22;39547;45.554;12.068;2023-03-14T02:28:29;12.20;75.50
53645;DHT22;39547;45.554;12.068;2023-03-14T02:34:35;12.20;76.60
53645;DHT22;39547;45.554;12.068;2023-03-14T02:40:37;12.20;75.90
53645;DHT22;39547;45.554;12.068;2023-03-14T02:46:39;12.20;76.30
53645;DHT22;39547;45.554;12.068;2023-03-14T02:52:41;12.20;75.80
53645;DHT22;39547;45.554;12.068;2023-03-14T02:58:42;12.20;76.00
53645;DHT22;39547;45.554;12.068;2023-03-14T03:05:07;12.20;76.00
53645;DHT22;39547;45.554;12.068;2023-03-14T03:11:09;12.20;76.20
53645;DHT22;39547;45.554;12.068;2023-03-14T03:17:11;12.20;76.00
53645;DHT22;39547;45.554;12.068;2023-03-14T03:23:13;12.20;76.70
53645;DHT22;39547;45.554;12.068;2023-03-14T03:29:15;12.20;76.80
53645;DHT22;39547;45.554;12.068;2023-03-14T03:35:17;12.20;76.80
53645;DHT22;39547;45.554;12.068;2023-03-14T03:41:18;12.20;76.80
53645;DHT22;39547;45.554;12.068;2023-03-14T03:47:22;12.20;76.70
53645;DHT22;39547;45.554;12.068;2023-03-14T03:53:23;12.20;76.70
53645;DHT22;39547;45.554;12.068;2023-03-14T03:59:25;12.20;76.40
53645;DHT22;39547;45.554;12.068;2023-03-14T04:05:27;12.20;76.60
53645;DHT22;39547;45.554;12.068;2023-03-14T04:11:35;12.20;77.40
53645;DHT22;39547;45.554;12.068;2023-03-14T04:17:40;12.20;77.10
53645;DHT22;39547;45.554;12.068;2023-03-14T04:23:42;12.20;77.00
53645;DHT22;39547;45.554;12.068;2023-03-14T04:29:44;12.20;76.70
53645;DHT22;39547;45.554;12.068;2023-03-14T04:35:54;12.20;76.80
53645;DHT22;39547;45.554;12.068;2023-03-14T04:41:55;12.20;76.90
53645;DHT22;39547;45.554;12.068;2023-03-14T04:47:57;12.10;77.20
53645;DHT22;39547;45.554;12.068;2023-03-14T04:53:59;12.00;77.80
53645;DHT22;39547;45.554;12.068;2023-03-14T05:00:01;12.00;77.40
53645;DHT22;39547;45.554;12.068;2023-03-14T05:06:35;11.90;78.50
53645;DHT22;39547;45.554;12.068;2023-03-14T05:12:43;11.90;78.40
53645;DHT22;39547;45.554;12.068;2023-03-14T05:19:02;11.90;78.50
53645;DHT22;39547;45.554;12.068;2023-03-14T05:25:24;11.80;78.60
53645;DHT22;39547;45.554;12.068;2023-03-14T05:31:46;11.80;78.70
53645;DHT22;39547;45.554;12.068;2023-03-14T05:38:14;11.80;78.80
53645;DHT22;39547;45.554;12.068;2023-03-14T05:44:28;11.80;79.00
53645;DHT22;39547;45.554;12.068;2023-03-14T05:50:32;11.80;79.10
53645;DHT22;39547;45.554;12.068;2023-03-14T05:56:52;11.70;79.20
53645;DHT22;39547;45.554;12.068;2023-03-14T06:03:21;11.80;79.30
53645;DHT22;39547;45.554;12.068;2023-03-14T06:09:23;11.70;79.70
53645;DHT22;39547;45.554;12.068;2023-03-14T06:15:27;11.70;80.10
53645;DHT22;39547;45.554;12.068;2023-03-14T06:21:31;11.80;79.50
53645;DHT22;39547;45.554;12.068;2023-03-14T06:27:33;11.80;80.00
53645;DHT22;39547;45.554;12.068;2023-03-14T06:33:35;11.80;80.00
53645;DHT22;39547;45.554;12.068;2023-03-14T06:39:36;11.80;80.40
53645;DHT22;39547;45.554;12.068;2023-03-14T06:45:46;11.90;80.50
53645;DHT22;39547;45.554;12.068;2023-03-14T06:51:48;12.00;80.60
53645;DHT22;39547;45.554;12.068;2023-03-14T06:57:49;12.00;80.60
53645;DHT22;39547;45.554;12.068;2023-03-14T07:03:51;12.00;81.00
53645;DHT22;39547;45.554;12.068;2023-03-14T07:09:53;12.00;81.10
53645;DHT22;39547;45.554;12.068;2023-03-14T07:15:54;11.80;81.10
53645;DHT22;39547;45.554;12.068;2023-03-14T07:21:56;11.70;81.10
53645;DHT22;39547;45.554;12.068;2023-03-14T07:28:01;11.60;82.30
53645;DHT22;39547;45.554;12.068;2023-03-14T07:34:04;11.50;84.20
53645;DHT22;39547;45.554;12.068;2023-03-14T07:40:10;11.40;83.00
53645;DHT22;39547;45.554;12.068;2023-03-14T07:46:16;11.30;83.20
53645;DHT22;39547;45.554;12.068;2023-03-14T07:52:18;11.30;84.10
53645;DHT22;39547;45.554;12.068;2023-03-14T07:58:20;11.40;84.30
53645;DHT22;39547;45.554;12.068;2023-03-14T08:04:23;11.50;84.20
53645;DHT22;39547;45.554;12.068;2023-03-14T08:10:24;11.60;84.50
53645;DHT22;39547;45.554;12.068;2023-03-14T08:16:26;11.60;85.00
53645;DHT22;39547;45.554;12.068;2023-03-14T08:22:27;11.70;84.70
53645;DHT22;39547;45.554;12.068;2023-03-14T08:28:29;11.80;85.00
53645;DHT22;39547;45.554;12.068;2023-03-14T08:34:33;11.90;85.20
53645;DHT22;39547;45.554;12.068;2023-03-14T08:40:34;12.00;84.80
53645;DHT22;39547;45.554;12.068;2023-03-14T08:46:36;12.00;85.00
53645;DHT22;39547;45.554;12.068;2023-03-14T08:52:38;12.00;84.80
53645;DHT22;39547;45.554;12.068;2023-03-14T08:58:41;12.10;85.20
53645;DHT22;39547;45.554;12.068;2023-03-14T09:04:43;12.20;85.10
53645;DHT22;39547;45.554;12.068;2023-03-14T09:10:44;12.20;85.30
53645;DHT22;39547;45.554;12.068;2023-03-14T09:16:46;12.10;85.10
53645;DHT22;39547;45.554;12.068;2023-03-14T09:22:48;12.10;85.00
53645;DHT22;39547;45.554;12.068;2023-03-14T09:28:49;12.20;84.90
53645;DHT22;39547;45.554;12.068;2023-03-14T09:34:51;12.20;85.20
53645;DHT22;39547;45.554;12.068;2023-03-14T09:40:53;12.40;85.20
53645;DHT22;39547;45.554;12.068;2023-03-14T09:46:58;12.40;85.30
53645;DHT22;39547;45.554;12.068;2023-03-14T09:53:06;12.40;85.40
53645;DHT22;39547;45.554;12.068;2023-03-14T09:59:11;12.30;85.20
53645;DHT22;39547;45.554;12.068;2023-03-14T10:05:20;12.30;85.30
53645;DHT22;39547;45.554;12.068;2023-03-14T10:11:22;12.30;85.30
53645;DHT22;39547;45.554;12.068;2023-03-14T10:17:24;12.30;85.40
53645;DHT22;39547;45.554;12.068;2023-03-14T10:23:29;12.30;85.40
53645;DHT22;39547;45.554;12.068;2023-03-14T10:29:54;12.30;85.50
53645;DHT22;39547;45.554;12.068;2023-03-14T10:36:00;12.30;85.50
53645;DHT22;39547;45.554;12.068;2023-03-14T10:42:25;12.30;85.70
53645;DHT22;39547;45.554;12.068;2023-03-14T10:48:34;12.40;85.90
53645;DHT22;39547;45.554;12.068;2023-03-14T10:54:37;12.40;85.90
53645;DHT22;39547;45.554;12.068;2023-03-14T11:00:38;12.50;86.00
53645;DHT22;39547;45.554;12.068;2023-03-14T11:13:06;12.40;86.50
53645;DHT22;39547;45.554;12.068;2023-03-14T11:19:20;12.30;86.40
53645;DHT22;39547;45.554;12.068;2023-03-14T11:25:50;12.30;86.60
53645;DHT22;39547;45.554;12.068;2023-03-14T11:31:57;12.20;86.70
53645;DHT22;39547;45.554;12.068;2023-03-14T11:38:15;12.30;86.60
53645;DHT22;39547;45.554;12.068;2023-03-14T11:50:25;12.70;86.80
53645;DHT22;39547;45.554;12.068;2023-03-14T11:56:37;12.80;86.70
53645;DHT22;39547;45.554;12.068;2023-03-14T12:09:03;12.90;86.20
53645;DHT22;39547;45.554;12.068;2023-03-14T12:15:05;12.90;86.30
53645;DHT22;39547;45.554;12.068;2023-03-14T12:21:19;13.00;86.20
53645;DHT22;39547;45.554;12.068;2023-03-14T12:27:41;13.00;86.00
53645;DHT22;39547;45.554;12.068;2023-03-14T12:33:43;12.80;86.00
53645;DHT22;39547;45.554;12.068;2023-03-14T12:40:26;12.80;86.10
53645;DHT22;39547;45.554;12.068;2023-03-14T12:46:31;12.80;86.30
53645;DHT22;39547;45.554;12.068;2023-03-14T12:52:37;12.90;86.60
53645;DHT22;39547;45.554;12.068;2023-03-14T13:11:24;13.10;86.40
53645;DHT22;39547;45.554;12.068;2023-03-14T13:17:31;13.20;86.60
53645;DHT22;39547;45.554;12.068;2023-03-14T13:23:34;13.30;86.70
53645;DHT22;39547;45.554;12.068;2023-03-14T13:29:36;13.60;86.60
53645;DHT22;39547;45.554;12.068;2023-03-14T13:35:59;13.70;86.30
53645;DHT22;39547;45.554;12.068;2023-03-14T13:42:01;13.70;86.00
53645;DHT22;39547;45.554;12.068;2023-03-14T13:48:03;13.60;85.90
53645;DHT22;39547;45.554;12.068;2023-03-14T13:54:13;13.60;86.00
53645;DHT22;39547;45.554;12.068;2023-03-14T14:00:21;13.70;86.10
53645;DHT22;39547;45.554;12.068;2023-03-14T14:12:49;13.70;86.10
53645;DHT22;39547;45.554;12.068;2023-03-14T14:18:53;13.60;86.10
53645;DHT22;39547;45.554;12.068;2023-03-14T14:24:57;13.70;86.30
53645;DHT22;39547;45.554;12.068;2023-03-14T14:31:04;13.70;86.20
53645;DHT22;39547;45.554;12.068;2023-03-14T14:37:18;13.70;86.30
53645;DHT22;39547;45.554;12.068;2023-03-14T14:43:25;13.80;86.30
53645;DHT22;39547;45.554;12.068;2023-03-14T14:49:30;13.80;86.10
53645;DHT22;39547;45.554;12.068;2023-03-14T14:55:38;13.90;86.20
53645;DHT22;39547;45.554;12.068;2023-03-14T15:01:41;14.00;86.20
53645;DHT22;39547;45.554;12.068;2023-03-14T15:07:43;14.00;86.00
53645;DHT22;39547;45.554;12.068;2023-03-14T15:13:45;14.00;85.90
53645;DHT22;39547;45.554;12.068;2023-03-14T15:19:46;14.00;85.80
53645;DHT22;39547;45.554;12.068;2023-03-14T15:25:48;14.00;85.90
53645;DHT22;39547;45.554;12.068;2023-03-14T15:31:50;14.10;86.00
53645;DHT22;39547;45.554;12.068;2023-03-14T15:37:51;14.30;86.50
53645;DHT22;39547;45.554;12.068;2023-03-14T15:43:53;15.10;85.50
53645;DHT22;39547;45.554;12.068;2023-03-14T15:49:55;15.30;84.60
53645;DHT22;39547;45.554;12.068;2023-03-14T15:55:56;15.40;84.00
53645;DHT22;39547;45.554;12.068;2023-03-14T16:01:58;15.20;83.50
53645;DHT22;39547;45.554;12.068;2023-03-14T16:08:00;15.00;83.20
53645;DHT22;39547;45.554;12.068;2023-03-14T16:14:04;14.70;83.50
53645;DHT22;39547;45.554;12.068;2023-03-14T16:20:05;14.40;83.30
53645;DHT22;39547;45.554;12.068;2023-03-14T16:26:11;14.10;83.90
53645;DHT22;39547;45.554;12.068;2023-03-14T16:32:12;13.90;84.30
53645;DHT22;39547;45.554;12.068;2023-03-14T16:38:14;13.80;84.50
53645;DHT22;39547;45.554;12.068;2023-03-14T16:44:15;13.60;84.70
53645;DHT22;39547;45.554;12.068;2023-03-14T16:50:17;13.50;84.80
53645;DHT22;39547;45.554;12.068;2023-03-14T16:56:19;13.40;84.90
53645;DHT22;39547;45.554;12.068;2023-03-14T17:02:20;13.30;85.00
53645;DHT22;39547;45.554;12.068;2023-03-14T17:08:22;13.20;85.20
53645;DHT22;39547;45.554;12.068;2023-03-14T17:14:23;13.20;85.30
53645;DHT22;39547;45.554;12.068;2023-03-14T17:20:26;13.20;85.30
53645;DHT22;39547;45.554;12.068;2023-03-14T17:26:28;13.20;85.40
53645;DHT22;39547;45.554;12.068;2023-03-14T17:32:29;13.10;85.50
53645;DHT22;39547;45.554;12.068;2023-03-14T17:38:32;13.20;85.50
53645;DHT22;39547;45.554;12.068;2023-03-14T17:44:34;13.10;85.60
53645;DHT22;39547;45.554;12.068;2023-03-14T17:50:36;13.10;85.60
53645;DHT22;39547;45.554;12.068;2023-03-14T17:56:38;13.10;85.70
53645;DHT22;39547;45.554;12.068;2023-03-14T18:02:39;13.10;85.70
53645;DHT22;39547;45.554;12.068;2023-03-14T18:08:42;13.10;85.70
53645;DHT22;39547;45.554;12.068;2023-03-14T18:14:44;13.00;85.80
53645;DHT22;39547;45.554;12.068;2023-03-14T18:20:49;13.00;85.80
53645;DHT22;39547;45.554;12.068;2023-03-14T18:26:51;13.00;85.80
53645;DHT22;39547;45.554;12.068;2023-03-14T18:32:52;13.00;85.90
53645;DHT22;39547;45.554;12.068;2023-03-14T18:38:54;13.00;85.90
53645;DHT22;39547;45.554;12.068;2023-03-14T18:44:56;12.90;85.90
53645;DHT22;39547;45.554;12.068;2023-03-14T18:50:58;13.00;86.00
53645;DHT22;39547;45.554;12.068;2023-03-14T18:57:00;13.00;86.00
53645;DHT22;39547;45.554;12.068;2023-03-14T19:03:02;13.00;86.00
53645;DHT22;39547;45.554;12.068;2023-03-14T19:09:04;12.90;86.20
53645;DHT22;39547;45.554;12.068;2023-03-14T19:15:09;12.90;86.20
53645;DHT22;39547;45.554;12.068;2023-03-14T19:21:12;12.80;86.20
53645;DHT22;39547;45.554;12.068;2023-03-14T19:27:14;12.80;86.30
53645;DHT22;39547;45.554;12.068;2023-03-14T19:33:16;12.80;86.30
53645;DHT22;39547;45.554;12.068;2023-03-14T19:39:18;12.80;86.40
53645;DHT22;39547;45.554;12.068;2023-03-14T19:45:19;12.70;86.50
53645;DHT22;39547;45.554;12.068;2023-03-14T19:51:22;12.60;86.30
53645;DHT22;39547;45.554;12.068;2023-03-14T19:57:23;12.50;86.30
53645;DHT22;39547;45.554;12.068;2023-03-14T20:03:25;12.50;86.80
53645;DHT22;39547;45.554;12.068;2023-03-14T20:09:26;12.40;86.60
53645;DHT22;39547;45.554;12.068;2023-03-14T20:15:28;12.20;86.50
53645;DHT22;39547;45.554;12.068;2023-03-14T20:21:30;12.20;86.60
53645;DHT22;39547;45.554;12.068;2023-03-14T20:27:32;12.10;86.80
53645;DHT22;39547;45.554;12.068;2023-03-14T20:33:34;12.00;86.70
53645;DHT22;39547;45.554;12.068;2023-03-14T20:39:35;12.00;86.90
53645;DHT22;39547;45.554;12.068;2023-03-14T20:45:37;12.00;87.10
53645;DHT22;39547;45.554;12.068;2023-03-14T20:51:38;11.90;87.30
53645;DHT22;39547;45.554;12.068;2023-03-14T20:57:39;12.00;86.90
53645;DHT22;39547;45.554;12.068;2023-03-14T21:03:41;12.00;86.90
53645;DHT22;39547;45.554;12.068;2023-03-14T21:09:43;12.00;86.90
53645;DHT22;39547;45.554;12.068;2023-03-14T21:15:44;12.00;86.80
53645;DHT22;39547;45.554;12.068;2023-03-14T21:21:46;11.90;86.80
53645;DHT22;39547;45.554;12.068;2023-03-14T21:27:47;11.90;86.80
53645;DHT22;39547;45.554;12.068;2023-03-14T21:33:50;11.80;86.70
53645;DHT22;39547;45.554;12.068;2023-03-14T21:39:52;11.80;86.70
53645;DHT22;39547;45.554;12.068;2023-03-14T21:45:54;11.80;86.70
53645;DHT22;39547;45.554;12.068;2023-03-14T21:51:55;11.70;86.70
53645;DHT22;39547;45.554;12.068;2023-03-14T21:57:57;11.70;86.80
53645;DHT22;39547;45.554;12.068;2023-03-14T22:03:59;11.70;86.80
53645;DHT22;39547;45.554;12.068;2023-03-14T22:10:00;11.70;86.90
53645;DHT22;39547;45.554;12.068;2023-03-14T22:16:02;11.70;86.90
53645;DHT22;39547;45.554;12.068;2023-03-14T22:22:04;11.70;86.90
53645;DHT22;39547;45.554;12.068;2023-03-14T22:28:05;11.70;87.00
53645;DHT22;39547;45.554;12.068;2023-03-14T22:34:07;11.70;87.00
53645;DHT22;39547;45.554;12.068;2023-03-14T22:40:09;11.70;87.00
53645;DHT22;39547;45.554;12.068;2023-03-14T22:46:10;11.70;86.90
53645;DHT22;39547;45.554;12.068;2023-03-14T22:52:12;11.70;86.80
53645;DHT22;39547;45.554;12.068;2023-03-14T22:58:14;11.60;86.90
53645;DHT22;39547;45.554;12.068;2023-03-14T23:04:15;11.60;86.80
53645;DHT22;39547;45.554;12.068;2023-03-14T23:10:17;11.60;86.80
53645;DHT22;39547;45.554;12.068;2023-03-14T23:16:19;11.60;86.80
53645;DHT22;39547;45.554;12.068;2023-03-14T23:22:24;11.60;86.90
53645;DHT22;39547;45.554;12.068;2023-03-14T23:28:25;11.50;86.80
53645;DHT22;39547;45.554;12.068;2023-03-14T23:34:27;11.50;86.70
53645;DHT22;39547;45.554;12.068;2023-03-14T23:40:28;11.50;86.60
53645;DHT22;39547;45.554;12.068;2023-03-14T23:46:30;11.50;86.70
53645;DHT22;39547;45.554;12.068;2023-03-14T23:52:31;11.50;86.70
53645;DHT22;39547;45.554;12.068;2023-03-14T23:58:33;11.40;86.70
